Time,TemperatureF,DewpointF,PressureIn,WindDirection,WindDirectionDegrees,WindSpeedMPH,WindSpeedGustMPH,Humidity,HourlyPrecipIn,Conditions,Clouds,dailyrainin,SoftwareType,DateUTC
2013-05-30 00:00:00,53.2,44.5,29.78,NNE,20,2.7,4.9,72,0.00,,---,0.00,VWS V14.01,2013-05-30 07:00:00,
2013-05-30 00:20:00,52.5,42.7,29.78,North,11,2.2,4.0,69,0.00,,---,0.00,VWS V14.01,2013-05-30 07:20:00,
2013-05-30 00:40:00,52.7,42.5,29.78,North,353,3.1,4.0,68,0.00,,---,0.00,VWS V14.01,2013-05-30 07:40:00,
2013-05-30 01:00:00,54.7,41.5,29.78,NNE,12,3.6,5.8,61,0.00,,---,0.00,VWS V14.01,2013-05-30 08:00:00,
2013-05-30 01:20:00,53.2,41.0,29.78,NW,325,0.0,5.4,63,0.00,,---,0.00,VWS V14.01,2013-05-30 08:20:00,
2013-05-30 01:40:00,51.3,40.7,29.78,North,349,2.7,4.0,67,0.00,,---,0.00,VWS V14.01,2013-05-30 08:40:00,
2013-05-30 02:00:00,49.6,39.5,29.75,North,11,0.0,4.0,68,0.00,,---,0.00,VWS V14.01,2013-05-30 09:00:00,
2013-05-30 02:20:00,50.2,39.7,29.75,NNW,340,2.2,3.1,67,0.00,,---,0.00,VWS V14.01,2013-05-30 09:20:00,
2013-05-30 02:40:00,49.8,38.2,29.75,NNW,330,0.0,2.7,64,0.00,,---,0.00,VWS V14.01,2013-05-30 09:40:00,
2013-05-30 03:00:00,50.4,37.4,29.75,North,0,0.0,3.1,61,0.00,,---,0.00,VWS V14.01,2013-05-30 10:00:00,
2013-05-30 03:20:00,48.9,36.1,29.75,NNE,20,0.0,2.7,61,0.00,,---,0.00,VWS V14.01,2013-05-30 10:20:00,
2013-05-30 03:40:00,47.3,36.9,29.75,NNE,20,0.0,0.0,67,0.00,,---,0.00,VWS V14.01,2013-05-30 10:40:00,
2013-05-30 04:00:00,47.7,35.3,29.75,NNE,20,0.0,0.0,62,0.00,,---,0.00,VWS V14.01,2013-05-30 11:00:00,
2013-05-30 04:20:00,47.3,35.4,29.75,NNE,31,0.0,3.6,63,0.00,,---,0.00,VWS V14.01,2013-05-30 11:20:00,
2013-05-30 04:40:00,47.5,34.3,29.75,NNE,31,0.0,0.0,60,0.00,,---,0.00,VWS V14.01,2013-05-30 11:40:00,
2013-05-30 05:00:00,46.2,33.9,29.75,NNE,30,0.0,2.7,62,0.00,,---,0.00,VWS V14.01,2013-05-30 12:00:00,
2013-05-30 05:20:00,46.4,32.9,29.78,NNE,23,0.0,2.7,59,0.00,,---,0.00,VWS V14.01,2013-05-30 12:20:00,
2013-05-30 05:40:00,45.0,33.5,29.78,NNE,23,0.0,2.7,64,0.00,,---,0.00,VWS V14.01,2013-05-30 12:40:00,
2013-05-30 06:00:00,45.9,33.6,29.78,NNE,24,0.0,3.1,62,0.00,,---,0.00,VWS V14.01,2013-05-30 13:00:00,
2013-05-30 06:20:00,45.1,33.7,29.78,NNE,24,0.0,0.0,64,0.00,,---,0.00,VWS V14.01,2013-05-30 13:20:00,
2013-05-30 06:40:00,49.5,34.9,29.78,NNE,22,0.0,3.1,57,0.00,,---,0.00,VWS V14.01,2013-05-30 13:40:00,
2013-05-30 07:00:00,54.3,35.1,29.78,NNE,15,2.2,3.1,48,0.00,,---,0.00,VWS V14.01,2013-05-30 14:00:00,
2013-05-30 07:20:00,56.3,35.2,29.75,NNE,18,0.0,2.7,45,0.00,,---,0.00,VWS V14.01,2013-05-30 14:20:00,
2013-05-30 07:40:00,59.7,37.8,29.78,North,7,2.2,3.1,44,0.00,,---,0.00,VWS V14.01,2013-05-30 14:40:00,
2013-05-30 08:00:00,61.9,39.8,29.78,WNW,284,0.0,3.6,44,0.00,,---,0.00,VWS V14.01,2013-05-30 15:00:00,
2013-05-30 08:20:00,68.0,44.1,29.78,SE,124,4.5,5.8,42,0.00,,---,0.00,VWS V14.01,2013-05-30 15:20:00,
2013-05-30 08:40:00,71.4,47.2,29.78,SSE,158,4.0,8.3,42,0.00,,---,0.00,VWS V14.01,2013-05-30 15:40:00,
2013-05-30 09:00:00,72.9,46.5,29.81,SSW,202,5.8,8.1,39,0.00,,---,0.00,VWS V14.01,2013-05-30 16:00:00,
2013-05-30 09:20:00,73.2,48.1,29.81,SW,224,7.6,11.0,41,0.00,,---,0.00,VWS V14.01,2013-05-30 16:20:00,
2013-05-30 09:40:00,74.5,47.2,29.81,SW,217,5.4,8.7,38,0.00,,---,0.00,VWS V14.01,2013-05-30 16:40:00,
2013-05-30 10:00:00,74.5,49.3,29.81,SSW,194,7.6,11.0,41,0.00,,---,0.00,VWS V14.01,2013-05-30 17:00:00,
2013-05-30 10:20:00,75.9,48.5,29.84,SSE,147,5.8,11.0,38,0.00,,---,0.00,VWS V14.01,2013-05-30 17:20:00,
2013-05-30 10:40:00,77.7,51.5,29.81,South,173,5.4,8.7,40,0.00,,---,0.00,VWS V14.01,2013-05-30 17:40:00,
2013-05-30 11:00:00,77.9,50.3,29.84,South,190,4.9,8.7,38,0.00,,---,0.00,VWS V14.01,2013-05-30 18:00:00,
2013-05-30 11:20:00,79.0,52.6,29.84,SSE,152,5.8,10.1,40,0.00,,---,0.00,VWS V14.01,2013-05-30 18:20:00,
2013-05-30 11:40:00,80.1,53.6,29.84,SSE,155,5.4,8.7,40,0.00,,---,0.00,VWS V14.01,2013-05-30 18:40:00,
2013-05-30 12:00:00,81.5,54.2,29.84,ESE,110,4.0,10.5,39,0.00,,---,0.00,VWS V14.01,2013-05-30 19:00:00,
2013-05-30 12:20:00,80.2,53.8,29.84,South,190,8.1,11.0,40,0.00,,---,0.00,VWS V14.01,2013-05-30 19:20:00,
2013-05-30 12:40:00,80.6,53.4,29.84,South,188,4.0,11.9,39,0.00,,---,0.00,VWS V14.01,2013-05-30 19:40:00,
2013-05-30 13:00:00,83.3,55.8,29.84,SSE,163,6.3,9.2,39,0.00,,---,0.00,VWS V14.01,2013-05-30 20:00:00,
2013-05-30 13:20:00,86.7,58.1,29.84,South,182,8.1,8.7,38,0.00,,---,0.00,VWS V14.01,2013-05-30 20:20:00,
2013-05-30 13:40:00,88.9,60.0,29.84,South,175,4.9,10.5,38,0.00,,---,0.00,VWS V14.01,2013-05-30 20:40:00,
2013-05-30 14:00:00,89.6,59.9,29.84,West,263,5.4,8.7,37,0.00,,---,0.00,VWS V14.01,2013-05-30 21:00:00,
2013-05-30 14:20:00,90.9,61.0,29.84,South,178,2.7,9.2,37,0.00,,---,0.00,VWS V14.01,2013-05-30 21:20:00,
2013-05-30 14:40:00,88.7,59.9,29.84,SW,217,6.3,12.3,38,0.00,,---,0.00,VWS V14.01,2013-05-30 21:40:00,
2013-05-30 15:00:00,89.8,60.1,29.84,WSW,248,3.6,10.5,37,0.00,,---,0.00,VWS V14.01,2013-05-30 22:00:00,
2013-05-30 15:20:00,87.1,58.4,29.84,SSW,205,5.8,10.1,38,0.00,,---,0.00,VWS V14.01,2013-05-30 22:20:00,
2013-05-30 15:40:00,85.3,56.8,29.84,SSW,212,10.1,12.3,38,0.00,,---,0.00,VWS V14.01,2013-05-30 22:40:00,
2013-05-30 16:00:00,87.1,58.4,29.84,SSE,152,3.1,11.9,38,0.00,,---,0.00,VWS V14.01,2013-05-30 23:00:00,
2013-05-30 16:20:00,88.0,59.2,29.84,SW,224,4.0,10.1,38,0.00,,---,0.00,VWS V14.01,2013-05-30 23:20:00,
2013-05-30 16:40:00,86.7,58.1,29.84,West,273,5.8,11.9,38,0.00,,---,0.00,VWS V14.01,2013-05-30 23:40:00,
2013-05-30 17:00:00,84.2,55.9,29.84,South,191,3.6,11.0,38,0.00,,---,0.00,VWS V14.01,2013-05-31 00:00:00,
2013-05-30 17:20:00,82.6,55.1,29.84,SSW,201,3.6,8.7,39,0.00,,---,0.00,VWS V14.01,2013-05-31 00:20:00,
2013-05-30 17:40:00,75.7,49.7,29.84,SSW,196,8.3,11.0,40,0.00,,---,0.00,VWS V14.01,2013-05-31 00:40:00,
2013-05-30 18:00:00,74.1,46.9,29.84,SSW,202,4.9,8.7,38,0.00,,---,0.00,VWS V14.01,2013-05-31 01:00:00,
2013-05-30 18:20:00,72.9,47.8,29.84,SSW,192,4.0,8.7,41,0.00,,---,0.00,VWS V14.01,2013-05-31 01:20:00,
2013-05-30 18:40:00,71.1,44.9,29.84,SSW,198,3.6,8.7,39,0.00,,---,0.00,VWS V14.01,2013-05-31 01:40:00,
2013-05-30 19:00:00,69.8,45.7,29.84,WNW,297,4.0,8.3,42,0.00,,---,0.00,VWS V14.01,2013-05-31 02:00:00,
2013-05-30 19:20:00,68.4,44.4,29.84,WSW,244,3.1,6.3,42,0.00,,---,0.00,VWS V14.01,2013-05-31 02:20:00,
2013-05-30 19:40:00,66.0,44.1,29.84,SSW,208,0.0,6.3,45,0.00,,---,0.00,VWS V14.01,2013-05-31 02:40:00,
2013-05-30 20:00:00,63.7,45.2,29.87,West,263,2.7,4.9,51,0.00,,---,0.00,VWS V14.01,2013-05-31 03:00:00,
2013-05-30 20:20:00,61.5,44.7,29.87,WSW,252,0.0,4.0,54,0.00,,---,0.00,VWS V14.01,2013-05-31 03:20:00,
2013-05-30 20:40:00,60.1,43.9,29.87,NNW,332,0.0,4.0,55,0.00,,---,0.00,VWS V14.01,2013-05-31 03:40:00,
2013-05-30 21:00:00,59.4,43.7,29.87,North,0,2.7,4.0,56,0.00,,---,0.00,VWS V14.01,2013-05-31 04:00:00,
2013-05-30 21:20:00,58.8,43.2,29.87,North,353,2.7,4.9,56,0.00,,---,0.00,VWS V14.01,2013-05-31 04:20:00,
2013-05-30 21:40:00,57.9,43.2,29.87,NNW,330,2.2,4.0,58,0.00,,---,0.00,VWS V14.01,2013-05-31 04:40:00,
2013-05-30 22:00:00,56.1,43.3,29.87,North,353,0.0,2.2,62,0.00,,---,0.00,VWS V14.01,2013-05-31 05:00:00,
2013-05-30 22:20:00,55.0,43.5,29.87,NNW,340,0.0,2.7,65,0.00,,---,0.00,VWS V14.01,2013-05-31 05:20:00,
2013-05-30 22:40:00,53.6,42.5,29.87,NW,323,0.0,2.7,66,0.00,,---,0.00,VWS V14.01,2013-05-31 05:40:00,
2013-05-30 23:00:00,53.1,42.4,29.87,NNE,13,2.2,3.1,67,0.00,,---,0.00,VWS V14.01,2013-05-31 06:00:00,
2013-05-30 23:20:00,52.3,42.1,29.87,North,353,0.0,2.7,68,0.00,,---,0.00,VWS V14.01,2013-05-31 06:20:00,
2013-05-30 23:40:00,51.3,41.1,29.87,NNE,19,0.0,3.6,68,0.00,,---,0.00,VWS V14.01,2013-05-31 06:40:00,